createdAt,value
2019-05-26T00:04:57.277Z,4.70
2019-05-26T00:10:01.487Z,4.37
2019-05-26T00:15:06.187Z,3.92
2019-05-26T00:20:10.960Z,4.55
2019-05-26T00:25:15.603Z,4.50
2019-05-26T00:30:20.410Z,4.80
2019-05-26T00:35:24.607Z,4.28
2019-05-26T00:40:28.806Z,4.50
2019-05-26T00:45:33.225Z,4.35
2019-05-26T00:50:37.449Z,4.42
2019-05-26T00:55:41.628Z,4.58
2019-05-26T01:00:46.019Z,5.37
2019-05-26T01:05:50.233Z,4.70
2019-05-26T01:10:54.421Z,4.70
2019-05-26T01:15:58.629Z,4.65
2019-05-26T01:21:02.827Z,4.90
2019-05-26T01:26:07.072Z,5.00
2019-05-26T01:31:11.321Z,5.22
2019-05-26T01:36:15.911Z,4.67
2019-05-26T01:41:20.163Z,5.03
2019-05-26T01:46:24.357Z,5.37
2019-05-26T01:51:28.541Z,5.15
2019-05-26T01:56:32.750Z,8.38
2019-05-26T02:01:36.957Z,5.97
2019-05-26T02:06:41.152Z,6.22
2019-05-26T02:11:45.370Z,5.85
2019-05-26T02:16:49.569Z,5.60
2019-05-26T02:21:53.805Z,5.53
2019-05-26T02:26:58.041Z,5.00
2019-05-26T02:32:02.239Z,5.85
2019-05-26T02:37:06.454Z,5.87
2019-05-26T02:42:10.923Z,6.30
2019-05-26T02:47:15.114Z,6.95
2019-05-26T02:52:19.332Z,6.72
2019-05-26T02:57:23.504Z,5.53
2019-05-26T03:02:27.939Z,6.00
2019-05-26T03:07:33.141Z,6.50
2019-05-26T03:12:41.816Z,7.15
2019-05-26T03:17:47.792Z,6.33
2019-05-26T03:22:54.155Z,6.22
2019-05-26T03:27:58.364Z,6.42
2019-05-26T03:33:02.807Z,6.67
2019-05-26T03:38:06.999Z,7.20
2019-05-26T03:43:11.194Z,7.22
2019-05-26T03:48:15.424Z,7.58
2019-05-26T03:53:19.613Z,8.58
2019-05-26T03:58:23.819Z,7.97
2019-05-26T04:03:28.203Z,7.65
2019-05-26T04:08:32.400Z,7.12
2019-05-26T04:13:36.594Z,7.83
2019-05-26T04:18:40.891Z,8.53
2019-05-26T04:23:45.084Z,8.23
2019-05-26T04:28:49.322Z,8.60
2019-05-26T04:33:53.547Z,8.38
2019-05-26T04:38:57.774Z,8.88
2019-05-26T04:44:01.972Z,8.15
2019-05-26T04:49:06.171Z,8.88
2019-05-26T04:54:10.361Z,9.63
2019-05-26T04:59:14.699Z,9.15
2019-05-26T05:04:18.897Z,8.30
2019-05-26T05:09:23.091Z,8.23
2019-05-26T05:14:27.283Z,9.28
2019-05-26T05:19:31.489Z,9.60
2019-05-26T05:24:35.706Z,9.60
2019-05-26T05:29:39.913Z,9.53
2019-05-26T05:34:44.096Z,9.65
2019-05-26T05:39:48.292Z,9.55
2019-05-26T05:44:52.489Z,9.53
2019-05-26T05:49:56.667Z,9.65
2019-05-26T05:55:00.870Z,10.25
2019-05-26T06:00:06.469Z,9.75
2019-05-26T06:05:10.957Z,9.60
2019-05-26T06:10:15.575Z,9.90
2019-05-26T06:15:19.833Z,8.98
2019-05-26T06:20:24.067Z,8.40
2019-05-26T06:25:28.324Z,8.33
2019-05-26T06:30:32.526Z,7.62
2019-05-26T06:35:36.793Z,7.22
2019-05-26T06:40:41.115Z,7.62
2019-05-26T06:45:45.317Z,7.17
2019-05-26T06:50:49.513Z,6.70
2019-05-26T06:55:53.748Z,8.00
2019-05-26T07:00:57.915Z,6.83
2019-05-26T07:06:02.136Z,7.55
2019-05-26T07:11:06.415Z,5.92
2019-05-26T07:16:10.636Z,5.83
2019-05-26T07:21:14.898Z,4.92
2019-05-26T07:26:19.126Z,4.70
2019-05-26T07:31:23.346Z,4.80
2019-05-26T07:36:27.550Z,4.75
2019-05-26T07:41:31.759Z,4.20
2019-05-26T07:46:36.007Z,3.67
2019-05-26T07:51:40.215Z,3.45
2019-05-26T07:56:44.452Z,3.45
2019-05-26T08:01:48.691Z,3.15
2019-05-26T08:06:52.905Z,3.50
2019-05-26T08:11:57.119Z,3.12
2019-05-26T08:17:01.374Z,4.33
2019-05-26T08:22:05.582Z,3.52
2019-05-26T08:27:09.788Z,3.67
2019-05-26T08:32:15.115Z,3.37
2019-05-26T08:37:19.615Z,2.75
2019-05-26T08:42:27.181Z,3.22
2019-05-26T08:47:29.747Z,3.50
2019-05-26T08:52:33.959Z,3.08
2019-05-26T08:57:38.175Z,2.80
2019-05-26T09:02:42.406Z,2.60
2019-05-26T09:07:46.605Z,2.87
2019-05-26T09:13:00.246Z,2.80
2019-05-26T09:17:56.843Z,2.85
2019-05-26T09:23:01.180Z,3.15
2019-05-26T09:28:05.594Z,2.83
2019-05-26T09:33:09.818Z,3.27
2019-05-26T09:38:14.016Z,3.27
2019-05-26T09:43:18.228Z,2.50
2019-05-26T09:48:22.467Z,2.87
2019-05-26T09:53:26.681Z,2.87
2019-05-26T09:58:30.882Z,3.12
2019-05-26T10:03:35.392Z,3.27
2019-05-26T10:08:39.628Z,3.40
2019-05-26T10:13:43.876Z,3.35
2019-05-26T10:18:48.120Z,4.33
2019-05-26T10:23:53.318Z,3.60
2019-05-26T10:29:00.584Z,3.95
2019-05-26T10:34:03.753Z,4.28
2019-05-26T10:39:08.982Z,4.55
2019-05-26T10:44:13.195Z,4.10
2019-05-26T10:49:17.397Z,4.42
2019-05-26T10:54:21.595Z,4.10
2019-05-26T10:59:25.827Z,4.08
2019-05-26T11:04:30.038Z,4.03
2019-05-26T11:09:34.247Z,4.00
2019-05-26T11:14:38.444Z,4.37
2019-05-26T11:19:42.645Z,3.98
2019-05-26T11:24:46.882Z,4.12
2019-05-26T11:29:51.083Z,4.10
2019-05-26T11:35:01.592Z,4.00
2019-05-26T11:40:01.238Z,3.92
2019-05-26T11:45:06.328Z,3.47
2019-05-26T11:50:11.281Z,3.65
2019-05-26T11:55:15.688Z,3.42
2019-05-26T12:00:21.207Z,3.22
2019-05-26T12:05:25.412Z,3.87
2019-05-26T12:10:29.627Z,3.35
2019-05-26T12:15:33.893Z,3.80
2019-05-26T12:20:38.172Z,3.20
2019-05-26T12:25:42.654Z,3.30
2019-05-26T12:30:47.098Z,3.85
2019-05-26T12:35:51.353Z,4.10
2019-05-26T12:40:55.563Z,3.70
2019-05-26T12:45:59.768Z,3.35
2019-05-26T12:51:03.991Z,3.25
2019-05-26T12:56:08.208Z,3.52
2019-05-26T13:01:12.492Z,3.58
2019-05-26T13:06:17.702Z,3.40
2019-05-26T13:11:22.865Z,3.85
2019-05-26T13:16:27.286Z,3.70
2019-05-26T13:21:31.511Z,3.50
2019-05-26T13:26:35.689Z,3.80
2019-05-26T13:31:39.920Z,2.83
2019-05-26T13:36:44.529Z,3.33
2019-05-26T13:41:48.732Z,3.55
2019-05-26T13:46:52.987Z,3.20
2019-05-26T13:51:57.257Z,2.85
2019-05-26T13:57:01.462Z,3.00
2019-05-26T14:02:05.767Z,3.27
2019-05-26T14:07:10.017Z,2.50
2019-05-26T14:12:14.210Z,2.15
2019-05-26T14:17:18.707Z,2.52
2019-05-26T14:22:22.933Z,2.12
2019-05-26T14:27:27.278Z,2.55
2019-05-26T14:32:31.507Z,2.58
2019-05-26T14:37:35.774Z,2.40
2019-05-26T14:42:39.997Z,2.70
2019-05-26T14:47:44.235Z,3.08
2019-05-26T14:52:48.433Z,2.62
2019-05-26T14:57:52.767Z,2.35
2019-05-26T15:02:57.174Z,2.30
2019-05-26T15:08:01.654Z,2.20
2019-05-26T15:13:07.027Z,2.58
2019-05-26T15:18:11.201Z,2.50
2019-05-26T15:23:15.419Z,2.45
2019-05-26T15:28:19.646Z,2.22
2019-05-26T15:33:23.886Z,2.15
2019-05-26T15:38:42.009Z,2.25
2019-05-26T15:43:34.127Z,2.50
2019-05-26T15:48:38.477Z,2.70
2019-05-26T15:53:42.691Z,2.47
2019-05-26T15:58:46.919Z,2.70
2019-05-26T16:03:52.157Z,2.75
2019-05-26T16:08:56.358Z,2.60
2019-05-26T16:14:01.278Z,2.20
2019-05-26T16:19:05.597Z,2.12
2019-05-26T16:24:09.806Z,2.20
2019-05-26T16:29:14.059Z,2.67
2019-05-26T16:34:18.304Z,3.25
2019-05-26T16:39:36.118Z,2.60
2019-05-26T16:44:28.702Z,2.22
2019-05-26T16:49:33.013Z,1.90
2019-05-26T16:54:37.221Z,2.75
2019-05-26T16:59:41.424Z,1.90
2019-05-26T17:04:45.640Z,2.25
2019-05-26T17:09:49.916Z,1.95
2019-05-26T17:14:54.131Z,2.17
2019-05-26T17:19:58.342Z,1.82
2019-05-26T17:25:02.547Z,2.00
2019-05-26T17:30:07.628Z,2.58
2019-05-26T17:35:11.934Z,2.60
2019-05-26T17:40:16.143Z,2.00
2019-05-26T17:45:20.835Z,2.30
2019-05-26T17:50:25.089Z,2.42
2019-05-26T17:55:29.551Z,2.50
2019-05-26T18:00:34.632Z,2.47
2019-05-26T18:05:38.861Z,2.58
2019-05-26T18:10:44.198Z,2.17
2019-05-26T18:15:48.576Z,2.20
2019-05-26T18:20:52.784Z,2.20
2019-05-26T18:25:57.013Z,2.72
2019-05-26T18:31:02.386Z,2.20
2019-05-26T18:36:06.792Z,2.05
2019-05-26T18:41:11.592Z,2.70
2019-05-26T18:46:16.178Z,2.90
2019-05-26T18:51:20.519Z,2.37
2019-05-26T18:56:24.816Z,2.20
2019-05-26T19:01:29.056Z,2.65
2019-05-26T19:06:33.309Z,2.87
2019-05-26T19:11:37.848Z,2.50
2019-05-26T19:16:42.885Z,2.80
2019-05-26T19:21:47.147Z,2.70
2019-05-26T19:26:51.373Z,2.27
2019-05-26T19:31:55.686Z,2.15
2019-05-26T19:36:59.959Z,2.65
2019-05-26T19:42:06.502Z,2.77
2019-05-26T19:47:10.802Z,2.98
2019-05-26T19:52:15.119Z,2.60
2019-05-26T19:57:19.359Z,2.60
2019-05-26T20:02:23.719Z,3.10
2019-05-26T20:07:27.969Z,3.17
2019-05-26T20:12:32.231Z,3.70
2019-05-26T20:17:36.469Z,3.02
2019-05-26T20:22:40.737Z,3.62
2019-05-26T20:27:44.913Z,2.80
2019-05-26T20:32:49.128Z,3.25
2019-05-26T20:37:53.637Z,2.77
2019-05-26T20:42:57.874Z,3.00
2019-05-26T20:48:02.088Z,2.60
2019-05-26T20:53:06.289Z,2.52
2019-05-26T20:58:10.790Z,2.90
2019-05-26T21:03:15.005Z,3.08
2019-05-26T21:08:19.304Z,3.47
2019-05-26T21:13:23.653Z,3.30
2019-05-26T21:18:27.846Z,3.10
2019-05-26T21:23:32.082Z,3.27
2019-05-26T21:28:36.281Z,3.02
2019-05-26T21:33:40.498Z,3.10
2019-05-26T21:38:44.714Z,2.80
2019-05-26T21:43:48.918Z,3.20
2019-05-26T21:48:53.125Z,3.33
2019-05-26T21:53:57.430Z,3.02
2019-05-26T21:59:01.627Z,3.25
2019-05-26T22:04:06.388Z,3.90
2019-05-26T22:09:10.677Z,3.60
2019-05-26T22:14:14.881Z,4.00
2019-05-26T22:19:19.091Z,4.53
2019-05-26T22:24:23.330Z,4.15
2019-05-26T22:29:27.555Z,4.00
2019-05-26T22:34:31.769Z,4.55
2019-05-26T22:39:35.997Z,4.22
2019-05-26T22:44:40.216Z,3.62
2019-05-26T22:49:44.439Z,4.42
2019-05-26T22:54:48.719Z,3.60
2019-05-26T22:59:52.941Z,4.03
2019-05-26T23:04:57.156Z,3.40
2019-05-26T23:10:02.945Z,3.65
2019-05-26T23:15:08.235Z,3.70
2019-05-26T23:20:12.826Z,3.65
2019-05-26T23:25:17.265Z,3.17
2019-05-26T23:30:21.506Z,3.85
2019-05-26T23:35:25.706Z,3.45
2019-05-26T23:40:29.920Z,3.50
2019-05-26T23:45:34.169Z,3.30
2019-05-26T23:50:38.394Z,3.67
2019-05-26T23:55:42.611Z,3.52
